Time;durP1;ratioP1;P1;durP2;ratioP2;P2;SDS_P1;SDS_P2;PMS_P1;PMS_P2;Temp;Humidity;BMP_temperature;BMP_pressure;BME280_temperature;BME280_humidity;BME280_pressure;Samples;Min_cycle;Max_cycle;Signal;HPM_P1;HPM_P2
2022/05/23 00:00:53;;;;;;;0.45;0.40;;;14.60;99.90;;;;;;5039396;28;20960;-48
2022/05/23 00:03:21;;;;;;;0.60;0.40;;;14.60;99.90;;;;;;5039685;28;20061;-52
2022/05/23 00:05:48;;;;;;;0.63;0.47;;;14.60;99.90;;;;;;5040208;28;20140;-51
2022/05/23 00:08:15;;;;;;;0.50;0.50;;;14.60;99.90;;;;;;5028944;28;20135;-49
2022/05/23 00:10:42;;;;;;;0.63;0.40;;;14.60;99.90;;;;;;5046660;28;20055;-51
2022/05/23 00:13:08;;;;;;;0.88;0.50;;;14.60;99.90;;;;;;5047136;28;20136;-50
2022/05/23 00:15:35;;;;;;;0.55;0.40;;;14.60;99.90;;;;;;5045910;28;20087;-53
2022/05/23 00:18:02;;;;;;;0.90;0.52;;;14.70;99.90;;;;;;5046829;28;20075;-52
2022/05/23 00:20:29;;;;;;;0.55;0.40;;;14.70;99.90;;;;;;5044569;28;20505;-53
2022/05/23 00:22:55;;;;;;;0.50;0.50;;;14.80;99.90;;;;;;5046009;28;20147;-52
2022/05/23 00:25:22;;;;;;;0.70;0.70;;;14.90;99.90;;;;;;5042360;28;20053;-50
2022/05/23 00:27:50;;;;;;;0.68;0.63;;;14.90;99.90;;;;;;5043175;28;20082;-52
2022/05/23 00:30:23;;;;;;;1.10;0.70;;;14.90;99.90;;;;;;5025990;28;20238;-53
2022/05/23 00:35:35;;;;;;;1.10;0.60;;;14.90;99.90;;;;;;5035982;28;20035;-53
2022/05/23 00:38:02;;;;;;;1.38;0.60;;;14.90;99.90;;;;;;4993889;28;20064;-51
2022/05/23 00:40:37;;;;;;;0.47;0.38;;;14.80;99.90;;;;;;5006850;28;20080;-52
2022/05/23 00:43:14;;;;;;;1.00;0.47;;;14.90;99.90;;;;;;5028472;28;20131;-49
2022/05/23 00:45:46;;;;;;;1.10;0.50;;;14.90;99.90;;;;;;5025718;28;20526;-51
2022/05/23 00:48:14;;;;;;;1.00;0.53;;;14.90;99.90;;;;;;5037976;28;20454;-49
2022/05/23 00:50:43;;;;;;;0.57;0.47;;;14.90;99.90;;;;;;5043988;28;20148;-51
2022/05/23 00:53:10;;;;;;;0.43;0.40;;;14.90;99.90;;;;;;5009897;28;20296;-53
2022/05/23 00:55:40;;;;;;;0.82;0.63;;;14.90;99.90;;;;;;5026239;28;20140;-53
2022/05/23 00:58:17;;;;;;;1.17;0.60;;;14.90;99.90;;;;;;5019229;28;20179;-50
2022/05/23 01:00:44;;;;;;;0.70;0.60;;;14.90;99.90;;;;;;5031659;28;20137;-49
2022/05/23 01:03:13;;;;;;;0.60;0.60;;;14.90;99.90;;;;;;5016440;28;20152;-52
2022/05/23 01:05:40;;;;;;;0.80;0.50;;;14.90;99.90;;;;;;5040979;28;20075;-50
2022/05/23 01:08:07;;;;;;;0.80;0.70;;;14.90;99.90;;;;;;5035448;28;20465;-50
2022/05/23 01:10:34;;;;;;;1.48;0.60;;;14.80;99.90;;;;;;5031316;28;20526;-50
2022/05/23 01:13:01;;;;;;;0.57;0.57;;;14.80;99.90;;;;;;5028009;28;20389;-52
2022/05/23 01:15:29;;;;;;;0.68;0.60;;;14.80;99.90;;;;;;5026928;28;20067;-51
2022/05/23 01:17:56;;;;;;;0.60;0.60;;;14.80;99.90;;;;;;5044999;28;20044;-47
2022/05/23 01:20:23;;;;;;;1.27;0.77;;;14.80;99.90;;;;;;5036385;28;20055;-51
2022/05/23 01:23:10;;;;;;;1.00;0.55;;;14.80;99.90;;;;;;5045344;28;20135;-51
2022/05/23 01:25:45;;;;;;;0.93;0.60;;;14.80;99.90;;;;;;5045215;28;20620;-50
2022/05/23 01:28:12;;;;;;;0.93;0.70;;;14.80;99.90;;;;;;5045377;28;20081;-50
2022/05/23 01:30:40;;;;;;;0.65;0.63;;;14.80;99.90;;;;;;5044314;28;20135;-48
2022/05/23 01:33:08;;;;;;;1.02;0.70;;;14.70;99.90;;;;;;5034336;28;20107;-52
2022/05/23 01:35:35;;;;;;;0.85;0.60;;;14.70;99.90;;;;;;5030159;28;20052;-47
2022/05/23 01:38:02;;;;;;;0.43;0.43;;;14.70;99.90;;;;;;5026147;28;20056;-51
2022/05/23 01:40:28;;;;;;;0.70;0.50;;;14.70;99.90;;;;;;5021537;28;20148;-49
2022/05/23 01:42:55;;;;;;;0.75;0.57;;;14.60;99.90;;;;;;5047067;28;20144;-51
2022/05/23 01:45:24;;;;;;;0.50;0.32;;;14.60;99.90;;;;;;5044702;28;20132;-53
2022/05/23 01:47:51;;;;;;;1.42;0.70;;;14.60;99.90;;;;;;5027255;28;20128;-50
2022/05/23 01:50:18;;;;;;;0.90;0.55;;;14.50;99.90;;;;;;5007476;28;20085;-51
2022/05/23 01:52:45;;;;;;;1.52;0.68;;;14.50;99.90;;;;;;5038465;28;20135;-48
2022/05/23 01:55:11;;;;;;;2.08;1.00;;;14.50;99.90;;;;;;5044637;28;20479;-51
2022/05/23 01:57:38;;;;;;;1.40;0.82;;;14.40;99.90;;;;;;5045285;28;20176;-51
2022/05/23 02:02:51;;;;;;;0.32;0.32;;;14.40;99.90;;;;;;5030115;28;20243;-53
2022/05/23 02:05:18;;;;;;;1.00;0.60;;;14.40;99.90;;;;;;5024815;28;20125;-51
2022/05/23 02:07:45;;;;;;;1.10;0.70;;;14.40;99.90;;;;;;5026414;28;20073;-50
2022/05/23 02:10:12;;;;;;;0.57;0.57;;;14.40;99.90;;;;;;5025802;28;20148;-51
2022/05/23 02:12:38;;;;;;;1.10;0.70;;;14.40;99.90;;;;;;5030867;28;20423;-49
2022/05/23 02:15:06;;;;;;;0.70;0.57;;;14.40;99.90;;;;;;5043751;28;20059;-48
2022/05/23 02:17:33;;;;;;;0.75;0.60;;;14.30;99.90;;;;;;5044936;28;20554;-49
2022/05/23 02:20:00;;;;;;;0.68;0.50;;;14.30;99.90;;;;;;5034436;28;20088;-49
2022/05/23 02:22:27;;;;;;;0.88;0.85;;;14.30;99.90;;;;;;5028417;28;20124;-51
2022/05/23 02:24:53;;;;;;;0.93;0.63;;;14.30;99.90;;;;;;5044107;28;20159;-48
2022/05/23 02:27:20;;;;;;;0.77;0.60;;;14.40;99.90;;;;;;5044668;28;20144;-51
2022/05/23 02:29:47;;;;;;;0.90;0.80;;;14.40;99.90;;;;;;5027267;28;20079;-51
2022/05/23 02:32:14;;;;;;;0.90;0.50;;;14.40;99.90;;;;;;5027603;28;20110;-49
2022/05/23 02:34:41;;;;;;;0.52;0.50;;;14.40;99.90;;;;;;5043523;28;20199;-50
2022/05/23 02:37:09;;;;;;;1.13;0.70;;;14.30;99.90;;;;;;5043736;28;20538;-52
2022/05/23 02:39:35;;;;;;;1.08;0.70;;;14.30;99.90;;;;;;5044043;28;20408;-51
2022/05/23 02:42:02;;;;;;;1.67;0.70;;;14.30;99.90;;;;;;5044590;28;20138;-53
2022/05/23 02:44:29;;;;;;;0.73;0.60;;;14.20;99.90;;;;;;5043671;28;20087;-53
2022/05/23 02:46:56;;;;;;;1.48;0.75;;;14.20;99.90;;;;;;5044531;28;20520;-51
2022/05/23 02:49:22;;;;;;;0.80;0.70;;;14.20;99.90;;;;;;5043823;28;20099;-51
2022/05/23 02:51:49;;;;;;;1.40;0.70;;;14.20;99.90;;;;;;5025245;28;20132;-51
2022/05/23 02:54:16;;;;;;;0.98;0.68;;;14.10;99.90;;;;;;5041904;28;20176;-49
2022/05/23 02:56:43;;;;;;;1.17;0.70;;;14.10;99.90;;;;;;5044326;28;20083;-50
2022/05/23 02:59:09;;;;;;;0.80;0.70;;;14.10;99.90;;;;;;5044074;28;20049;-51
2022/05/23 03:03:01;;;;;;;0.50;0.50;;;14.10;99.90;;;;;;5043580;28;20063;-52
2022/05/23 03:04:23;;;;;;;1.08;0.65;;;14.20;99.90;;;;;;5043077;28;20511;-51
2022/05/23 03:06:50;;;;;;;1.27;0.80;;;14.20;99.90;;;;;;5043662;28;20157;-52
2022/05/23 03:09:16;;;;;;;0.50;0.50;;;14.20;99.90;;;;;;5044097;28;20131;-51
2022/05/23 03:11:43;;;;;;;0.77;0.60;;;14.30;99.90;;;;;;5043975;28;20090;-51
2022/05/23 03:14:10;;;;;;;0.65;0.60;;;14.30;99.90;;;;;;5043683;28;20132;-52
2022/05/23 03:16:36;;;;;;;0.45;0.43;;;14.30;99.90;;;;;;5025760;28;20461;-51
2022/05/23 03:19:04;;;;;;;1.33;0.50;;;14.30;99.90;;;;;;5024514;28;20443;-51
2022/05/23 03:27:01;;;;;;;0.55;0.55;;;14.30;99.90;;;;;;5044125;28;20140;-47
2022/05/23 03:29:28;;;;;;;0.50;0.50;;;14.40;99.90;;;;;;5029961;28;20056;-53
2022/05/23 03:31:55;;;;;;;0.75;0.60;;;14.40;99.90;;;;;;5025327;28;20048;-52
2022/05/23 03:34:22;;;;;;;0.57;0.57;;;14.40;99.90;;;;;;5040721;28;20080;-52
2022/05/23 03:36:48;;;;;;;0.77;0.60;;;14.40;99.90;;;;;;5043832;28;20120;-51
2022/05/23 03:39:15;;;;;;;2.10;0.80;;;14.40;99.90;;;;;;5043744;28;20076;-50
2022/05/23 03:41:42;;;;;;;0.73;0.50;;;14.40;99.90;;;;;;5047366;28;20075;-51
2022/05/23 03:44:09;;;;;;;1.38;0.75;;;14.40;99.90;;;;;;5047630;28;20114;-48
2022/05/23 03:46:36;;;;;;;1.05;0.60;;;14.40;99.90;;;;;;5029252;28;20083;-49
2022/05/23 03:49:03;;;;;;;0.77;0.57;;;14.40;99.90;;;;;;5027904;28;20045;-48
2022/05/23 03:51:30;;;;;;;1.95;0.90;;;14.40;99.90;;;;;;5027902;28;20381;-50
2022/05/23 03:53:57;;;;;;;1.48;0.65;;;14.40;99.90;;;;;;5041947;28;20191;-51
2022/05/23 03:56:23;;;;;;;0.77;0.60;;;14.40;99.90;;;;;;5046913;28;20049;-48
2022/05/23 03:58:50;;;;;;;0.65;0.57;;;14.40;99.90;;;;;;5046679;28;20086;-52
2022/05/23 04:01:21;;;;;;;1.23;0.60;;;14.40;99.90;;;;;;5046976;28;20488;-47
2022/05/23 04:03:48;;;;;;;0.75;0.60;;;14.50;99.90;;;;;;5029126;28;20092;-53
2022/05/23 04:06:15;;;;;;;0.60;0.52;;;14.50;99.90;;;;;;5027432;28;20413;-50
2022/05/23 04:08:42;;;;;;;0.50;0.40;;;14.50;99.90;;;;;;5028507;28;20428;-49
2022/05/23 04:11:08;;;;;;;0.88;0.60;;;14.50;99.90;;;;;;5028497;28;20045;-48
2022/05/23 04:13:36;;;;;;;0.70;0.50;;;14.50;99.90;;;;;;5038344;28;20087;-49
2022/05/23 04:16:03;;;;;;;0.63;0.40;;;14.60;99.90;;;;;;5047001;28;20070;-47
2022/05/23 04:18:31;;;;;;;0.90;0.65;;;14.60;99.90;;;;;;5042160;28;20128;-51
2022/05/23 04:20:58;;;;;;;0.43;0.43;;;14.70;99.90;;;;;;5008997;28;20121;-52
2022/05/23 04:23:25;;;;;;;0.30;0.30;;;14.70;99.90;;;;;;5036979;28;20152;-52
2022/05/23 04:25:51;;;;;;;0.65;0.45;;;14.70;99.90;;;;;;5043056;28;20045;-51
2022/05/23 04:28:19;;;;;;;1.13;0.60;;;14.70;99.90;;;;;;5041635;28;20083;-51
2022/05/23 04:30:45;;;;;;;0.50;0.50;;;14.80;99.90;;;;;;5027777;28;20085;-52
2022/05/23 04:35:58;;;;;;;0.47;0.47;;;14.90;99.90;;;;;;5044795;28;20056;-49
2022/05/23 04:38:25;;;;;;;1.25;0.65;;;14.90;99.90;;;;;;5046506;28;20510;-49
2022/05/23 04:40:52;;;;;;;0.52;0.52;;;14.90;99.90;;;;;;5027759;28;20053;-51
2022/05/23 04:43:18;;;;;;;0.60;0.60;;;14.90;99.90;;;;;;5034855;28;20136;-52
2022/05/23 04:45:45;;;;;;;0.70;0.43;;;15.00;99.90;;;;;;5046065;28;20128;-51
2022/05/23 04:50:58;;;;;;;0.40;0.40;;;15.10;99.90;;;;;;5023697;28;20481;-52
2022/05/23 04:53:25;;;;;;;0.43;0.30;;;15.10;99.90;;;;;;5033073;28;20456;-50
2022/05/23 04:55:51;;;;;;;0.80;0.50;;;15.10;99.90;;;;;;5031896;28;20057;-53
2022/05/23 04:58:18;;;;;;;0.40;0.40;;;15.10;99.90;;;;;;5031061;28;20128;-52
2022/05/23 05:00:45;;;;;;;0.13;0.13;;;15.20;99.90;;;;;;5030676;28;20054;-49
2022/05/23 05:03:16;;;;;;;0.63;0.50;;;15.20;99.90;;;;;;5026980;28;20651;-54
2022/05/23 05:05:44;;;;;;;0.80;0.55;;;15.20;99.90;;;;;;5025644;28;20049;-53
2022/05/23 05:08:10;;;;;;;0.40;0.40;;;15.20;99.90;;;;;;5032299;28;20125;-52
2022/05/23 05:10:37;;;;;;;0.55;0.55;;;15.20;99.90;;;;;;5036852;28;20502;-50
2022/05/23 05:13:04;;;;;;;0.52;0.43;;;15.30;99.90;;;;;;5030726;28;20059;-51
2022/05/23 05:15:31;;;;;;;0.43;0.40;;;15.20;99.90;;;;;;5031109;28;20414;-52
2022/05/23 05:17:57;;;;;;;0.57;0.57;;;15.30;99.90;;;;;;5032093;28;20399;-53
2022/05/23 05:20:24;;;;;;;0.40;0.40;;;15.30;99.90;;;;;;5029623;28;20544;-51
2022/05/23 05:22:51;;;;;;;0.88;0.70;;;15.30;99.90;;;;;;5029796;28;20335;-54
2022/05/23 05:25:18;;;;;;;1.67;0.60;;;15.20;99.90;;;;;;5022956;28;20077;-51
2022/05/23 05:27:45;;;;;;;1.13;0.70;;;15.20;99.90;;;;;;5029051;28;20171;-51
2022/05/23 05:30:15;;;;;;;0.82;0.60;;;15.20;99.90;;;;;;5040885;28;20509;-49
2022/05/23 05:33:18;;;;;;;1.30;0.70;;;15.30;99.90;;;;;;5040713;28;20128;-50
2022/05/23 05:36:06;;;;;;;1.33;0.50;;;15.30;99.90;;;;;;4921111;29;20087;-52
2022/05/23 05:38:41;;;;;;;0.88;0.73;;;15.30;99.90;;;;;;5024581;28;20534;-51
2022/05/23 05:41:11;;;;;;;0.60;0.60;;;15.30;99.90;;;;;;5010266;28;20398;-52
2022/05/23 05:43:46;;;;;;;0.85;0.40;;;15.30;99.90;;;;;;5013974;28;20236;-51
2022/05/23 05:46:15;;;;;;;1.75;1.02;;;15.30;99.90;;;;;;5034422;28;20245;-52
2022/05/23 05:48:43;;;;;;;0.75;0.50;;;15.30;99.90;;;;;;5021620;28;20570;-49
2022/05/23 05:51:11;;;;;;;0.50;0.50;;;15.40;99.90;;;;;;5019819;28;20064;-49
2022/05/23 05:53:38;;;;;;;0.50;0.47;;;15.40;99.90;;;;;;5016588;28;20080;-51
2022/05/23 05:56:05;;;;;;;0.50;0.50;;;15.40;99.90;;;;;;5036743;28;20144;-51
2022/05/23 05:58:32;;;;;;;0.57;0.50;;;15.40;99.90;;;;;;5019050;28;20057;-50
2022/05/23 06:00:59;;;;;;;0.57;0.30;;;15.50;99.90;;;;;;4992377;28;20456;-54
2022/05/23 06:03:26;;;;;;;0.35;0.35;;;15.50;99.90;;;;;;5025551;28;20076;-55
2022/05/23 06:11:27;;;;;;;0.68;0.50;;;15.40;99.90;;;;;;5035343;28;20132;-52
2022/05/23 06:13:56;;;;;;;1.35;0.68;;;15.50;99.90;;;;;;5035708;28;20144;-53
2022/05/23 06:16:23;;;;;;;0.73;0.57;;;15.50;99.90;;;;;;5031867;28;20132;-55
2022/05/23 06:18:51;;;;;;;0.65;0.60;;;15.50;99.90;;;;;;5034644;28;20487;-52
2022/05/23 06:21:18;;;;;;;0.73;0.70;;;15.50;99.90;;;;;;5030342;28;20044;-53
2022/05/23 06:23:47;;;;;;;0.40;0.40;;;15.50;99.90;;;;;;5008921;28;20057;-54
2022/05/23 06:26:15;;;;;;;0.90;0.60;;;15.50;99.90;;;;;;5034856;28;20136;-51
2022/05/23 06:28:42;;;;;;;1.65;0.70;;;15.50;99.90;;;;;;5023801;28;20080;-53
2022/05/23 06:31:10;;;;;;;1.00;0.73;;;15.40;99.90;;;;;;5038679;28;20041;-54
2022/05/23 06:33:37;;;;;;;1.67;0.70;;;15.40;99.90;;;;;;5033026;28;20136;-52
2022/05/23 06:36:05;;;;;;;1.48;0.77;;;15.40;99.90;;;;;;5038071;28;20496;-53
2022/05/23 06:38:33;;;;;;;1.20;0.63;;;15.40;99.90;;;;;;5039273;28;20060;-55
2022/05/23 06:40:59;;;;;;;1.02;0.65;;;15.50;99.90;;;;;;5034129;28;20116;-54
2022/05/23 06:43:27;;;;;;;0.95;0.70;;;15.50;99.90;;;;;;5038701;28;20048;-55
2022/05/23 06:45:54;;;;;;;1.25;0.82;;;15.50;99.90;;;;;;5032281;28;20056;-55
2022/05/23 06:48:22;;;;;;;1.33;0.70;;;15.50;99.90;;;;;;5001974;28;20100;-55
2022/05/23 06:50:50;;;;;;;1.45;1.00;;;15.50;99.90;;;;;;5014526;28;20076;-55
2022/05/23 06:53:19;;;;;;;0.77;0.63;;;15.60;99.90;;;;;;5029806;28;20610;-54
2022/05/23 06:55:46;;;;;;;1.17;0.63;;;15.70;99.90;;;;;;5036335;28;20060;-53
2022/05/23 06:58:13;;;;;;;0.60;0.60;;;15.70;99.90;;;;;;5039270;28;20049;-53
2022/05/23 07:00:40;;;;;;;1.23;0.60;;;15.80;99.90;;;;;;5038870;28;20052;-54
2022/05/23 07:03:06;;;;;;;1.30;0.80;;;15.80;99.90;;;;;;5038537;28;20132;-54
2022/05/23 07:13:53;;;;;;;0.85;0.70;;;16.10;99.90;;;;;;5034757;28;20084;-55
2022/05/23 07:16:20;;;;;;;0.77;0.70;;;16.10;99.90;;;;;;5045242;28;20088;-58
2022/05/23 07:18:47;;;;;;;0.55;0.50;;;16.10;99.90;;;;;;5040659;28;20388;-54
2022/05/23 07:21:15;;;;;;;0.80;0.52;;;16.20;99.90;;;;;;5035072;28;20514;-54
2022/05/23 07:23:42;;;;;;;0.65;0.57;;;16.30;99.90;;;;;;5038931;28;20084;-52
2022/05/23 07:26:11;;;;;;;0.70;0.60;;;16.40;99.90;;;;;;5045084;28;20051;-51
2022/05/23 07:28:38;;;;;;;0.93;0.75;;;16.40;99.90;;;;;;5044486;28;20132;-54
2022/05/23 07:31:04;;;;;;;1.35;0.77;;;16.40;99.90;;;;;;5044545;28;20168;-54
2022/05/23 07:33:31;;;;;;;0.63;0.50;;;16.50;99.90;;;;;;5026943;28;20140;-54
2022/05/23 07:35:59;;;;;;;0.98;0.70;;;16.60;99.90;;;;;;5040111;28;20045;-55
2022/05/23 07:38:27;;;;;;;0.95;0.93;;;16.70;99.90;;;;;;5029621;28;20049;-55
2022/05/23 07:40:55;;;;;;;0.75;0.60;;;16.80;99.90;;;;;;5038919;28;20045;-51
2022/05/23 07:43:22;;;;;;;1.02;0.73;;;16.80;99.90;;;;;;5037427;28;20046;-54
2022/05/23 07:45:49;;;;;;;0.88;0.63;;;16.90;99.90;;;;;;5014600;28;20052;-54
2022/05/23 07:48:16;;;;;;;0.60;0.50;;;16.90;99.90;;;;;;5007277;28;20516;-52
2022/05/23 07:50:44;;;;;;;0.85;0.77;;;17.00;99.90;;;;;;5041272;28;20091;-53
2022/05/23 08:01:30;;;;;;;1.27;0.90;;;17.10;99.90;;;;;;5035858;28;20547;-55
2022/05/23 08:03:57;;;;;;;0.80;0.70;;;17.10;99.90;;;;;;5035895;28;20239;-54
2022/05/23 08:06:23;;;;;;;0.88;0.82;;;17.20;99.90;;;;;;5031704;28;20543;-55
2022/05/23 08:08:50;;;;;;;1.23;0.90;;;17.10;99.90;;;;;;5033295;28;20140;-55
2022/05/23 08:11:17;;;;;;;2.88;0.95;;;17.20;99.90;;;;;;5038254;28;20111;-56
2022/05/23 08:13:47;;;;;;;1.10;0.88;;;17.30;99.90;;;;;;5032132;28;20458;-55
2022/05/23 08:16:14;;;;;;;1.27;1.10;;;17.40;99.90;;;;;;5024999;28;20052;-55
2022/05/23 08:18:41;;;;;;;2.08;1.20;;;17.40;99.90;;;;;;5033154;28;20077;-51
2022/05/23 08:21:08;;;;;;;0.95;0.80;;;17.50;99.90;;;;;;5008660;28;20092;-56
2022/05/23 08:23:34;;;;;;;1.42;0.95;;;17.50;99.90;;;;;;5036515;28;20730;-56
2022/05/23 08:26:02;;;;;;;1.10;0.90;;;17.70;99.90;;;;;;5017359;28;20478;-56
2022/05/23 08:28:29;;;;;;;1.42;1.05;;;17.90;99.90;;;;;;5021699;28;20083;-56
2022/05/23 08:30:57;;;;;;;1.52;0.90;;;17.90;99.90;;;;;;5021234;28;20053;-56
2022/05/23 08:33:23;;;;;;;1.40;1.20;;;17.90;99.90;;;;;;5032805;28;20048;-55
2022/05/23 08:35:50;;;;;;;1.75;1.13;;;17.90;99.90;;;;;;5039504;28;20182;-56
2022/05/23 08:38:17;;;;;;;1.77;1.20;;;17.90;99.90;;;;;;5041914;28;20095;-56
2022/05/23 08:41:02;;;;;;;2.97;1.20;;;18.00;99.90;;;;;;5040761;28;20183;-55
2022/05/23 08:43:43;;;;;;;1.33;0.90;;;18.10;99.90;;;;;;5041124;28;20053;-54
2022/05/23 08:46:10;;;;;;;1.02;0.80;;;18.20;99.90;;;;;;5024299;28;20136;-55
2022/05/23 08:48:47;;;;;;;1.35;1.00;;;18.40;99.90;;;;;;5006724;28;20488;-52
2022/05/23 08:51:18;;;;;;;1.77;1.23;;;18.50;99.90;;;;;;5040827;28;20124;-56
2022/05/23 08:54:14;;;;;;;0.90;0.80;;;18.60;99.90;;;;;;5022906;28;20045;-52
2022/05/23 08:56:44;;;;;;;0.90;0.80;;;18.80;99.90;;;;;;5040506;28;20045;-55
2022/05/23 08:59:25;;;;;;;1.20;0.80;;;19.00;99.90;;;;;;5022629;28;20156;-56
2022/05/23 09:01:52;;;;;;;1.20;1.02;;;19.10;99.90;;;;;;5023921;28;20061;-56
2022/05/23 09:04:33;;;;;;;1.92;1.33;;;19.20;99.90;;;;;;5040010;28;20057;-56
2022/05/23 09:07:00;;;;;;;1.05;0.85;;;19.30;99.90;;;;;;5022457;28;20055;-55
2022/05/23 09:09:30;;;;;;;1.30;1.00;;;19.40;99.90;;;;;;5022775;28;20380;-52
2022/05/23 09:12:11;;;;;;;1.33;1.08;;;19.60;99.90;;;;;;5041389;28;20088;-56
2022/05/23 09:14:38;;;;;;;1.95;1.30;;;19.60;99.90;;;;;;5015302;28;20056;-54
2022/05/23 09:17:08;;;;;;;2.22;1.30;;;19.60;99.90;;;;;;5027033;28;20136;-56
2022/05/23 09:19:40;;;;;;;1.88;1.20;;;19.60;99.90;;;;;;5012175;28;20045;-56
2022/05/23 09:22:14;;;;;;;1.10;1.00;;;19.80;99.90;;;;;;5012330;28;20493;-56
2022/05/23 09:24:45;;;;;;;1.20;1.00;;;20.10;99.90;;;;;;5013356;28;20167;-56
2022/05/23 09:27:16;;;;;;;1.40;0.90;;;20.20;99.90;;;;;;5035510;28;20127;-55
2022/05/23 09:29:46;;;;;;;1.48;1.10;;;20.30;99.90;;;;;;5009820;28;20132;-52
2022/05/23 09:32:15;;;;;;;1.45;1.10;;;20.30;99.90;;;;;;5019081;28;20136;-57
2022/05/23 09:34:52;;;;;;;0.70;0.70;;;20.30;99.90;;;;;;5013425;28;20458;-55
2022/05/23 09:37:22;;;;;;;1.05;0.95;;;20.50;99.90;;;;;;5011075;28;20059;-56
2022/05/23 09:39:52;;;;;;;1.20;0.85;;;20.70;99.90;;;;;;5031207;28;20508;-56
2022/05/23 09:48:24;;;;;;;1.33;1.00;;;21.20;99.90;;;;;;5045158;28;20415;-56
2022/05/23 09:51:02;;;;;;;1.48;0.98;;;21.40;99.90;;;;;;5033571;28;20136;-56
2022/05/23 09:53:32;;;;;;;1.52;0.90;;;21.50;99.90;;;;;;5032762;28;20051;-55
2022/05/23 09:56:30;;;;;;;0.55;0.50;;;21.40;99.90;;;;;;5017673;28;20106;-56
2022/05/23 09:58:59;;;;;;;0.73;0.70;;;21.20;99.90;;;;;;5033852;28;20067;-52
2022/05/23 10:01:31;;;;;;;1.27;1.00;;;21.00;99.90;;;;;;5038701;28;20135;-56
2022/05/23 10:03:59;;;;;;;1.17;0.80;;;20.90;99.90;;;;;;5035151;28;20045;-55
2022/05/23 10:06:33;;;;;;;1.38;0.90;;;20.80;99.90;;;;;;5017337;28;20055;-56
2022/05/23 10:09:00;;;;;;;0.90;0.82;;;20.70;99.90;;;;;;5036046;28;20052;-56
2022/05/23 10:11:31;;;;;;;1.55;1.25;;;20.60;99.90;;;;;;5018145;28;20124;-56
2022/05/23 10:14:03;;;;;;;1.30;1.00;;;20.40;99.90;;;;;;5002121;28;20061;-56
2022/05/23 10:16:30;;;;;;;0.93;0.82;;;20.40;99.90;;;;;;5020739;28;20072;-55
2022/05/23 10:19:00;;;;;;;0.55;0.55;;;20.60;99.90;;;;;;5019053;28;20052;-56
2022/05/23 10:21:37;;;;;;;0.45;0.45;;;20.70;99.90;;;;;;5036762;28;20067;-54
2022/05/23 10:24:04;;;;;;;0.80;0.60;;;20.80;99.90;;;;;;5037930;28;20103;-54
2022/05/23 10:26:38;;;;;;;1.30;0.68;;;20.80;99.90;;;;;;5042890;28;20053;-55
2022/05/23 10:29:15;;;;;;;1.33;0.70;;;20.80;99.90;;;;;;5021652;28;20167;-56
2022/05/23 10:31:49;;;;;;;0.70;0.55;;;20.80;99.90;;;;;;5037576;28;20048;-56
2022/05/23 10:34:39;;;;;;;1.02;0.77;;;20.70;99.90;;;;;;5023555;28;20377;-54
2022/05/23 10:37:10;;;;;;;0.95;0.70;;;20.40;99.90;;;;;;5026855;28;20065;-53
2022/05/23 10:42:44;;;;;;;1.88;0.70;;;19.90;99.90;;;;;;5011036;28;20488;-56
2022/05/23 10:45:28;;;;;;;1.02;0.70;;;19.70;99.90;;;;;;5037554;28;20094;-56
2022/05/23 10:48:00;;;;;;;0.52;0.43;;;19.70;99.90;;;;;;5040009;28;20230;-56
2022/05/23 10:50:36;;;;;;;1.33;0.80;;;19.50;99.90;;;;;;5041922;28;20140;-56
2022/05/23 10:53:09;;;;;;;1.20;0.80;;;19.30;99.90;;;;;;5021792;28;20106;-54
2022/05/23 10:55:44;;;;;;;1.05;0.70;;;19.10;99.90;;;;;;5018410;28;20126;-55
2022/05/23 10:58:16;;;;;;;0.70;0.50;;;19.00;99.90;;;;;;5020655;28;20243;-56
2022/05/23 11:01:02;;;;;;;1.40;0.70;;;19.00;99.90;;;;;;5010078;28;20132;-55
2022/05/23 11:03:47;;;;;;;1.42;1.05;;;19.00;99.90;;;;;;5028450;28;20136;-56
2022/05/23 11:06:37;;;;;;;0.65;0.60;;;18.80;99.90;;;;;;5042365;28;20555;-54
2022/05/23 11:09:16;;;;;;;1.13;0.77;;;18.70;99.90;;;;;;5035133;28;20128;-54
2022/05/23 11:12:14;;;;;;;1.30;0.85;;;18.60;99.90;;;;;;5027740;28;20072;-56
2022/05/23 11:15:02;;;;;;;1.15;0.70;;;18.60;99.90;;;;;;5034727;28;20076;-56
2022/05/23 11:17:43;;;;;;;1.25;1.08;;;18.40;99.90;;;;;;5034194;28;20087;-54
2022/05/23 11:20:12;;;;;;;1.23;0.90;;;18.00;99.90;;;;;;5007558;28;20052;-52
2022/05/23 11:22:50;;;;;;;1.52;1.10;;;17.50;99.90;;;;;;5021574;28;20149;-56
2022/05/23 11:25:28;;;;;;;1.35;0.90;;;17.20;99.90;;;;;;5004368;28;20400;-55
2022/05/23 11:34:57;;;;;;;0.75;0.65;;;16.60;99.90;;;;;;5022131;28;20096;-53
2022/05/23 11:40:02;;;;;;;1.30;0.70;;;16.40;99.90;;;;;;4963140;28;20136;-54
2022/05/23 11:42:49;;;;;;;1.27;0.60;;;16.50;99.90;;;;;;5002268;28;20468;-54
2022/05/23 11:48:33;;;;;;;1.00;0.68;;;16.60;99.90;;;;;;5033501;28;20378;-55
2022/05/23 11:51:12;;;;;;;0.98;0.80;;;16.80;99.90;;;;;;5016854;28;20103;-53
2022/05/23 11:53:42;;;;;;;0.75;0.60;;;16.90;99.90;;;;;;5038451;28;20052;-55
2022/05/23 11:56:10;;;;;;;0.70;0.55;;;17.00;99.90;;;;;;5020661;28;20059;-56
2022/05/23 11:58:48;;;;;;;1.60;0.63;;;17.20;99.90;;;;;;5037305;28;20084;-53
2022/05/23 12:01:20;;;;;;;0.77;0.77;;;17.30;99.90;;;;;;5039822;28;20127;-56
2022/05/23 12:03:54;;;;;;;1.23;0.90;;;17.40;99.90;;;;;;5040932;28;20060;-55
2022/05/23 12:06:24;;;;;;;1.05;0.75;;;17.40;99.90;;;;;;5041384;28;20148;-54
2022/05/23 12:09:12;;;;;;;1.00;0.80;;;17.40;99.90;;;;;;5041938;28;20099;-54
2022/05/23 12:11:44;;;;;;;1.13;0.80;;;17.40;99.90;;;;;;5042473;28;20521;-56
2022/05/23 12:14:32;;;;;;;1.23;0.93;;;17.40;99.90;;;;;;5034491;28;20069;-56
2022/05/23 12:17:05;;;;;;;0.82;0.63;;;17.40;99.90;;;;;;5010544;28;20196;-56
2022/05/23 12:19:39;;;;;;;0.88;0.75;;;17.30;99.90;;;;;;5000014;28;20135;-56
2022/05/23 12:22:34;;;;;;;1.83;1.10;;;17.30;99.90;;;;;;5035580;28;20443;-54
2022/05/23 12:25:10;;;;;;;1.92;1.30;;;17.00;99.90;;;;;;5020604;28;20055;-54
2022/05/23 12:27:43;;;;;;;3.03;1.40;;;16.60;99.90;;;;;;5032809;28;20167;-54
2022/05/23 12:30:22;;;;;;;2.28;1.35;;;16.30;99.90;;;;;;5040695;28;20131;-56
2022/05/23 12:32:56;;;;;;;2.97;0.95;;;16.20;99.90;;;;;;5028931;28;20131;-51
2022/05/23 12:35:53;;;;;;;3.17;1.70;;;16.00;99.90;;;;;;5040300;28;20366;-55
2022/05/23 12:38:41;;;;;;;3.38;2.15;;;15.90;99.90;;;;;;5026724;28;20506;-55
2022/05/23 12:41:23;;;;;;;1.95;1.33;;;15.80;99.90;;;;;;5020491;28;20374;-53
2022/05/23 12:44:04;;;;;;;2.13;1.25;;;15.80;99.90;;;;;;5033045;28;20048;-55
2022/05/23 12:46:40;;;;;;;3.33;1.70;;;15.80;99.90;;;;;;5032659;28;20088;-55
2022/05/23 12:49:38;;;;;;;2.85;1.80;;;15.60;99.90;;;;;;5020662;28;20507;-57
2022/05/23 12:52:14;;;;;;;2.75;1.60;;;15.60;99.90;;;;;;5023290;28;20122;-55
2022/05/23 12:55:05;;;;;;;2.15;1.05;;;15.60;99.90;;;;;;5033013;28;20077;-55
2022/05/23 12:57:58;;;;;;;1.73;1.42;;;15.60;99.90;;;;;;5040043;28;20634;-55
2022/05/23 13:00:49;;;;;;;3.40;1.83;;;15.60;99.90;;;;;;5037309;28;20469;-53
2022/05/23 13:03:24;;;;;;;1.55;1.35;;;15.60;99.90;;;;;;5036296;28;20151;-55
2022/05/23 13:06:23;;;;;;;2.70;1.58;;;15.50;99.90;;;;;;5037829;28;20041;-55
2022/05/23 13:09:06;;;;;;;2.80;1.92;;;15.40;99.90;;;;;;5026082;28;20041;-55
2022/05/23 13:11:55;;;;;;;3.03;1.95;;;15.20;99.90;;;;;;5023019;28;20053;-54
2022/05/23 13:14:22;;;;;;;2.33;1.63;;;15.00;99.90;;;;;;5030926;28;20256;-54
2022/05/23 13:16:54;;;;;;;3.53;1.65;;;14.90;99.90;;;;;;5031737;28;20947;-54
2022/05/23 13:22:20;;;;;;;3.80;1.95;;;14.80;99.90;;;;;;5022605;28;20136;-56
2022/05/23 13:24:49;;;;;;;3.72;2.10;;;14.60;99.90;;;;;;4997058;28;20080;-54
2022/05/23 13:27:27;;;;;;;2.50;1.70;;;14.60;99.90;;;;;;4999099;28;20567;-52
2022/05/23 13:30:01;;;;;;;2.80;1.58;;;14.60;99.90;;;;;;5034380;28;20219;-55
2022/05/23 13:32:28;;;;;;;2.67;1.30;;;14.60;99.90;;;;;;5021177;28;20511;-54
2022/05/23 13:34:59;;;;;;;3.05;1.50;;;14.60;99.90;;;;;;5037905;28;20045;-54
2022/05/23 13:37:36;;;;;;;1.75;1.13;;;14.50;99.90;;;;;;5038545;28;20053;-53
2022/05/23 13:40:29;;;;;;;1.23;0.88;;;14.40;99.90;;;;;;5003997;28;20303;-54
2022/05/23 13:43:12;;;;;;;;;;;14.40;99.90;;;;;;5035513;28;20052;-53
2022/05/23 13:45:42;;;;;;;1.65;0.73;;;14.40;99.90;;;;;;5039699;28;20098;-54
2022/05/23 13:48:14;;;;;;;0.88;0.65;;;14.50;99.90;;;;;;5006581;28;20053;-51
2022/05/23 13:50:48;;;;;;;1.20;0.70;;;14.60;99.90;;;;;;5016566;28;20147;-55
2022/05/23 13:53:18;;;;;;;1.15;0.70;;;14.70;99.90;;;;;;4994258;28;20143;-55
2022/05/23 13:55:50;;;;;;;2.25;0.70;;;14.90;99.90;;;;;;5020622;28;20127;-53
2022/05/23 13:58:24;;;;;;;1.52;1.00;;;14.90;99.90;;;;;;5010182;28;20172;-53
2022/05/23 14:01:04;;;;;;;1.02;0.73;;;15.00;99.90;;;;;;5036922;28;20167;-55
2022/05/23 14:03:40;;;;;;;2.20;0.95;;;15.00;99.90;;;;;;5015250;28;20748;-54
2022/05/23 14:06:17;;;;;;;1.15;0.80;;;15.20;99.90;;;;;;5017636;28;20053;-55
2022/05/23 14:08:46;;;;;;;0.73;0.65;;;15.40;99.90;;;;;;5018219;28;20087;-55
2022/05/23 14:11:38;;;;;;;0.77;0.52;;;15.50;99.90;;;;;;5039437;28;20056;-54